Main page
METAR-TAF:

METAR-TAF

Airports :

Hemphill County Airport

Canadian, Texas, United States

latitude: 35-54N, longitude: 100-24W, elevation: 2394 ft

Current weather observation

The report was made 15 minutes ago, at 22:15 UTC
Wind 13 mph from the North/Northeast with gusts up to 21 mph
Temperature 34°F
Humidity 93%
Pressure 30.19 in. Hg
Visibility: 7 miles
Overcast at a height of 700 ft

METAR: KHHF 172215Z AUTO 02011G18KT 7SM OVC007 01/00 A3019 RMK AO2 T00061001

Time: 16:30 (22:30 UTC)


TAF: missing

Weather observations and forecasts of more than 4000 airports (METAR and TAF reports).

The available stations are represented by yellow and red dots on the map.

Hover mouse over dot to see the name of the station.

Then click to see weather observations and forecasts.

To change the map : click on the green buttons with a black cross to zoom in, on the green button with a dash to zoom out, or on the green arrows for adjacent maps.


METAR-TAF: